createdAt,value
2017-05-14T00:00:25.238Z,1280
2017-05-14T00:01:26.467Z,1280
2017-05-14T00:02:27.694Z,1280
2017-05-14T00:03:28.922Z,1280
2017-05-14T00:04:30.176Z,1280
2017-05-14T00:05:31.425Z,1280
2017-05-14T00:06:32.653Z,1280
2017-05-14T00:07:33.897Z,1280
2017-05-14T00:08:35.133Z,1280
2017-05-14T00:09:36.730Z,1280
2017-05-14T00:10:37.956Z,1280
2017-05-14T00:11:39.183Z,1280
2017-05-14T00:12:40.754Z,1280
2017-05-14T00:13:42.331Z,1280
2017-05-14T00:14:43.573Z,1280
2017-05-14T00:15:44.812Z,1280
2017-05-14T00:16:46.057Z,1280
2017-05-14T00:17:47.617Z,1280
2017-05-14T00:18:49.181Z,1280
2017-05-14T00:19:50.434Z,1280
2017-05-14T00:20:51.658Z,1280
2017-05-14T00:21:52.896Z,1280
2017-05-14T00:22:54.118Z,1280
2017-05-14T00:23:55.354Z,1280
2017-05-14T00:24:56.596Z,1280
2017-05-14T00:25:57.826Z,1280
2017-05-14T00:26:59.061Z,1280
2017-05-14T00:28:00.293Z,1280
2017-05-14T00:29:01.517Z,1280
2017-05-14T00:30:02.745Z,1280
2017-05-14T00:31:03.988Z,1280
2017-05-14T00:32:05.220Z,1280
2017-05-14T00:33:06.486Z,1280
2017-05-14T00:34:08.069Z,1280
2017-05-14T00:35:09.296Z,1280
2017-05-14T00:36:10.555Z,1280
2017-05-14T00:37:11.780Z,1280
2017-05-14T00:38:13.029Z,1280
2017-05-14T00:39:14.253Z,1280
2017-05-14T00:40:15.491Z,1280
2017-05-14T00:41:16.724Z,1280
2017-05-14T00:42:17.969Z,1280
2017-05-14T00:43:19.214Z,1280
2017-05-14T00:44:20.453Z,1280
2017-05-14T00:45:21.668Z,1280
2017-05-14T00:46:22.906Z,1280
2017-05-14T00:47:24.464Z,1280
2017-05-14T00:48:25.713Z,1280
2017-05-14T00:49:26.953Z,1280
2017-05-14T00:50:28.531Z,1280
2017-05-14T00:51:30.115Z,1280
2017-05-14T00:52:31.346Z,1280
2017-05-14T00:53:32.644Z,1280
2017-05-14T00:54:34.206Z,1280
2017-05-14T00:55:35.445Z,1280
2017-05-14T00:56:36.674Z,1280
2017-05-14T00:57:37.903Z,1280
2017-05-14T00:58:39.196Z,1280
2017-05-14T00:59:40.420Z,1280
2017-05-14T01:00:41.713Z,1280
2017-05-14T01:01:42.946Z,1280
2017-05-14T01:02:44.519Z,1280
2017-05-14T01:03:46.088Z,1280
2017-05-14T01:04:47.649Z,1280
2017-05-14T01:05:48.889Z,1280
2017-05-14T01:06:50.120Z,1280
2017-05-14T01:07:51.357Z,1280
2017-05-14T01:08:52.592Z,1280
2017-05-14T01:09:53.825Z,1280
2017-05-14T01:10:55.063Z,1280
2017-05-14T01:11:56.284Z,1280
2017-05-14T01:12:57.516Z,1280
2017-05-14T01:13:58.746Z,1280
2017-05-14T01:14:59.990Z,1280
2017-05-14T01:16:01.229Z,1280
2017-05-14T01:17:02.465Z,1280
2017-05-14T01:18:03.698Z,1280
2017-05-14T01:19:04.927Z,1280
2017-05-14T01:20:06.168Z,1280
2017-05-14T01:21:07.398Z,1280
2017-05-14T01:22:08.645Z,1280
2017-05-14T01:23:09.897Z,1280
2017-05-14T01:24:11.125Z,1280
2017-05-14T01:25:12.383Z,1280
2017-05-14T01:26:13.942Z,1280
2017-05-14T01:27:15.191Z,1280
2017-05-14T01:28:16.415Z,1280
2017-05-14T01:29:18.007Z,1280
2017-05-14T01:30:19.606Z,1280
2017-05-14T01:31:20.843Z,1254.4
2017-05-14T01:32:22.133Z,1280
2017-05-14T01:33:23.364Z,1280
2017-05-14T01:34:24.946Z,1254.4
2017-05-14T01:35:26.180Z,1254.4
2017-05-14T01:36:27.766Z,1254.4
2017-05-14T01:37:29.022Z,1254.4
2017-05-14T01:38:30.261Z,1254.4
2017-05-14T01:39:31.506Z,1254.4
2017-05-14T01:40:32.735Z,1254.4
2017-05-14T01:41:33.962Z,1254.4
2017-05-14T01:42:35.200Z,1254.4
2017-05-14T01:43:36.781Z,1254.4
2017-05-14T01:44:38.028Z,1280
2017-05-14T01:45:39.244Z,1280
2017-05-14T01:46:40.489Z,1280
2017-05-14T01:47:41.710Z,1280
2017-05-14T01:48:42.960Z,1280
2017-05-14T01:49:44.204Z,1280
2017-05-14T01:50:45.771Z,1280
2017-05-14T01:51:47.014Z,1280
2017-05-14T01:52:48.237Z,1280
2017-05-14T01:53:49.481Z,1280
2017-05-14T01:54:50.738Z,1280
2017-05-14T01:55:51.980Z,1280
2017-05-14T01:56:53.208Z,1280
2017-05-14T01:57:54.431Z,1280
2017-05-14T01:58:55.712Z,1280
2017-05-14T01:59:56.955Z,1280
2017-05-14T02:00:58.206Z,1280
2017-05-14T02:01:59.432Z,1280
2017-05-14T02:03:00.670Z,1280
2017-05-14T02:04:01.908Z,1280
2017-05-14T02:05:03.143Z,1280
2017-05-14T02:06:04.381Z,1280
2017-05-14T02:07:05.604Z,1280
2017-05-14T02:08:06.830Z,1280
2017-05-14T02:09:08.060Z,1280
2017-05-14T02:10:09.297Z,1280
2017-05-14T02:11:10.541Z,1280
2017-05-14T02:12:11.773Z,1280
2017-05-14T02:13:13.023Z,1280
2017-05-14T02:14:14.241Z,1280
2017-05-14T02:15:15.480Z,1280
2017-05-14T02:16:16.729Z,1280
2017-05-14T02:17:17.958Z,1280
2017-05-14T02:18:19.203Z,1280
2017-05-14T02:19:20.422Z,1280
2017-05-14T02:20:21.674Z,1280
2017-05-14T02:21:22.920Z,1280
2017-05-14T02:22:24.509Z,1280
2017-05-14T02:23:25.735Z,1280
2017-05-14T02:24:26.953Z,1280
2017-05-14T02:25:28.208Z,1280
2017-05-14T02:26:29.447Z,1280
2017-05-14T02:27:30.699Z,1280
2017-05-14T02:28:32.274Z,1280
2017-05-14T02:29:33.844Z,1280
2017-05-14T02:30:35.429Z,1280
2017-05-14T02:31:36.685Z,1280
2017-05-14T02:32:37.912Z,1280
2017-05-14T02:33:39.151Z,1280
2017-05-14T02:34:40.379Z,1280
2017-05-14T02:35:41.629Z,1280
2017-05-14T02:36:42.850Z,1254.4
2017-05-14T02:37:44.101Z,1254.4
2017-05-14T02:38:45.320Z,1254.4
2017-05-14T02:39:46.570Z,1254.4
2017-05-14T02:40:47.800Z,1254.4
2017-05-14T02:41:49.033Z,1254.4
2017-05-14T02:42:50.625Z,1254.4
2017-05-14T02:43:51.865Z,1254.4
2017-05-14T02:44:53.095Z,1254.4
2017-05-14T02:45:54.339Z,1254.4
2017-05-14T02:46:55.909Z,1254.4
2017-05-14T02:47:57.139Z,1254.4
2017-05-14T02:48:58.711Z,1254.4
2017-05-14T02:49:59.956Z,1254.4
2017-05-14T02:51:01.870Z,1254.4
2017-05-14T02:52:03.107Z,1254.4
2017-05-14T02:53:04.327Z,1254.4
2017-05-14T02:54:05.564Z,1254.4
2017-05-14T02:55:06.806Z,1254.4
2017-05-14T02:56:08.036Z,1254.4
2017-05-14T02:57:09.273Z,1254.4
2017-05-14T02:58:10.520Z,1254.4
2017-05-14T02:59:11.742Z,1254.4
2017-05-14T03:00:13.668Z,1254.4
2017-05-14T03:01:14.906Z,1254.4
2017-05-14T03:02:16.496Z,1254.4
2017-05-14T03:03:17.715Z,1254.4
2017-05-14T03:04:18.963Z,1254.4
2017-05-14T03:05:20.204Z,1254.4
2017-05-14T03:06:21.787Z,1254.4
2017-05-14T03:07:23.017Z,1254.4
2017-05-14T03:08:24.240Z,1254.4
2017-05-14T03:09:25.828Z,1254.4
2017-05-14T03:10:27.062Z,1254.4
2017-05-14T03:11:28.289Z,1254.4
2017-05-14T03:12:29.523Z,1254.4
2017-05-14T03:13:30.754Z,1254.4
2017-05-14T03:14:31.990Z,1254.4
2017-05-14T03:15:33.226Z,1254.4
2017-05-14T03:16:34.480Z,1254.4
2017-05-14T03:17:35.700Z,1254.4
2017-05-14T03:18:36.948Z,1254.4
2017-05-14T03:19:38.165Z,1254.4
2017-05-14T03:20:39.418Z,1254.4
2017-05-14T03:21:40.660Z,1254.4
2017-05-14T03:22:41.881Z,1254.4
2017-05-14T03:23:43.116Z,1254.4
2017-05-14T03:24:44.347Z,1254.4
2017-05-14T03:25:45.591Z,1254.4
2017-05-14T03:26:46.835Z,1254.4
2017-05-14T03:27:48.059Z,1254.4
2017-05-14T03:28:49.294Z,1254.4
2017-05-14T03:29:51.216Z,1254.4
2017-05-14T03:30:52.447Z,1254.4
2017-05-14T03:31:53.695Z,1254.4
2017-05-14T03:32:54.937Z,1254.4
2017-05-14T03:33:56.185Z,1254.4
2017-05-14T03:34:57.411Z,1254.4
2017-05-14T03:35:58.659Z,1254.4
2017-05-14T03:36:59.935Z,1254.4
2017-05-14T03:38:01.526Z,1254.4
2017-05-14T03:39:02.744Z,1254.4
2017-05-14T03:40:03.977Z,1254.4
2017-05-14T03:41:05.215Z,1254.4
2017-05-14T03:42:06.453Z,1254.4
2017-05-14T03:43:07.688Z,1254.4
2017-05-14T03:44:08.935Z,1254.4
2017-05-14T03:45:10.165Z,1254.4
2017-05-14T03:46:11.382Z,1254.4
2017-05-14T03:47:12.973Z,1254.4
2017-05-14T03:48:14.190Z,1254.4
2017-05-14T03:49:15.426Z,1254.4
2017-05-14T03:50:16.999Z,1254.4
2017-05-14T03:51:18.249Z,1254.4
2017-05-14T03:52:19.835Z,1254.4
2017-05-14T03:53:21.053Z,1254.4
2017-05-14T03:54:22.291Z,1254.4
2017-05-14T03:55:23.523Z,1254.4
2017-05-14T03:56:24.769Z,1254.4
2017-05-14T03:57:25.991Z,1254.4
2017-05-14T03:58:27.238Z,1254.4
2017-05-14T03:59:28.813Z,1254.4
2017-05-14T04:00:30.038Z,1254.4
2017-05-14T04:01:31.278Z,1254.4
2017-05-14T04:02:32.511Z,1254.4
2017-05-14T04:03:33.753Z,1254.4
2017-05-14T04:04:34.982Z,1254.4
2017-05-14T04:05:36.218Z,1254.4
2017-05-14T04:06:37.798Z,1254.4
2017-05-14T04:07:39.107Z,1254.4
2017-05-14T04:08:40.367Z,1254.4
2017-05-14T04:09:41.612Z,1254.4
2017-05-14T04:10:42.844Z,1254.4
2017-05-14T04:11:44.405Z,1254.4
2017-05-14T04:12:45.636Z,1254.4
2017-05-14T04:13:47.211Z,1254.4
2017-05-14T04:14:48.463Z,1254.4
2017-05-14T04:15:49.699Z,1254.4
2017-05-14T04:16:50.933Z,1254.4
2017-05-14T04:17:52.159Z,1254.4
2017-05-14T04:18:53.385Z,1254.4
2017-05-14T04:19:54.973Z,1254.4
2017-05-14T04:20:56.208Z,1254.4
2017-05-14T04:21:57.440Z,1254.4
2017-05-14T04:22:58.667Z,1254.4
2017-05-14T04:23:59.903Z,1254.4
2017-05-14T04:25:01.138Z,1254.4
2017-05-14T04:26:02.367Z,1254.4
2017-05-14T04:27:03.614Z,1254.4
2017-05-14T04:28:04.878Z,1254.4
2017-05-14T04:29:06.113Z,1254.4
2017-05-14T04:30:07.337Z,1305.6
2017-05-14T04:31:08.919Z,1484.8
2017-05-14T04:32:10.167Z,1331.2
2017-05-14T04:33:11.401Z,1305.6
2017-05-14T04:34:12.626Z,1305.6
2017-05-14T04:35:13.855Z,1280
2017-05-14T04:36:15.105Z,1280
2017-05-14T04:37:16.342Z,1280
2017-05-14T04:38:17.579Z,1280
2017-05-14T04:39:18.802Z,1280
2017-05-14T04:40:20.045Z,1280
2017-05-14T04:41:21.630Z,1254.4
2017-05-14T04:42:22.906Z,1280
2017-05-14T04:43:24.139Z,1356.8
2017-05-14T04:44:25.358Z,1305.6
2017-05-14T04:45:26.609Z,1280
2017-05-14T04:46:27.872Z,1280
2017-05-14T04:47:29.115Z,1280
2017-05-14T04:48:30.339Z,1254.4
2017-05-14T04:49:31.583Z,1254.4
2017-05-14T04:50:32.814Z,1254.4
2017-05-14T04:51:34.046Z,1254.4
2017-05-14T04:52:35.295Z,1254.4
2017-05-14T04:53:36.854Z,1254.4
2017-05-14T04:54:38.425Z,1254.4
2017-05-14T04:55:39.690Z,1254.4
2017-05-14T04:56:40.933Z,1254.4
2017-05-14T04:57:42.179Z,1280
2017-05-14T04:58:43.414Z,1280
2017-05-14T04:59:44.648Z,1254.4
2017-05-14T05:00:45.886Z,1254.4
2017-05-14T05:01:47.139Z,1254.4
2017-05-14T05:02:48.717Z,1254.4
2017-05-14T05:03:50.985Z,1254.4
2017-05-14T05:04:52.213Z,1254.4
2017-05-14T05:05:53.439Z,1254.4
2017-05-14T05:06:54.671Z,1254.4
2017-05-14T05:07:55.905Z,1254.4
2017-05-14T05:08:57.150Z,1254.4
2017-05-14T05:09:58.721Z,1254.4
2017-05-14T05:10:59.967Z,1254.4
2017-05-14T05:12:01.191Z,1254.4
2017-05-14T05:13:02.429Z,1254.4
2017-05-14T05:14:03.646Z,1254.4
2017-05-14T05:15:04.894Z,1254.4
2017-05-14T05:16:06.462Z,1228.8
2017-05-14T05:17:07.716Z,1228.8
2017-05-14T05:18:08.961Z,1228.8
2017-05-14T05:19:10.569Z,1228.8
2017-05-14T05:20:11.807Z,1228.8
2017-05-14T05:21:13.389Z,1228.8
2017-05-14T05:22:14.627Z,1228.8
2017-05-14T05:23:15.851Z,1228.8
2017-05-14T05:24:17.401Z,1228.8
2017-05-14T05:25:18.655Z,1228.8
2017-05-14T05:26:19.889Z,1228.8
2017-05-14T05:27:21.137Z,1228.8
2017-05-14T05:28:22.360Z,1228.8
2017-05-14T05:29:23.611Z,1228.8
2017-05-14T05:30:24.829Z,1228.8
2017-05-14T05:31:26.066Z,1228.8
2017-05-14T05:32:27.312Z,1228.8
2017-05-14T05:33:28.549Z,1228.8
2017-05-14T05:34:29.791Z,1228.8
2017-05-14T05:35:31.027Z,1228.8
2017-05-14T05:36:32.283Z,1228.8
2017-05-14T05:37:33.838Z,1228.8
2017-05-14T05:38:35.095Z,1228.8
2017-05-14T05:39:36.321Z,1228.8
2017-05-14T05:40:37.552Z,1228.8
2017-05-14T05:41:38.771Z,1228.8
2017-05-14T05:42:40.377Z,1228.8
2017-05-14T05:43:42.287Z,1228.8
2017-05-14T05:44:43.512Z,1228.8
2017-05-14T05:45:44.745Z,1228.8
2017-05-14T05:46:45.989Z,1228.8
2017-05-14T05:47:47.234Z,1228.8
2017-05-14T05:48:48.516Z,1228.8
2017-05-14T05:49:49.740Z,1228.8
2017-05-14T05:50:50.989Z,1228.8
2017-05-14T05:51:52.223Z,1228.8
2017-05-14T05:52:53.473Z,1228.8
2017-05-14T05:53:54.702Z,1228.8
2017-05-14T05:54:56.277Z,1228.8
2017-05-14T05:55:57.502Z,1228.8
2017-05-14T05:56:59.081Z,1228.8
2017-05-14T05:58:00.314Z,1228.8
2017-05-14T05:59:01.536Z,1228.8
2017-05-14T06:00:02.786Z,1228.8
2017-05-14T06:01:04.364Z,1228.8
2017-05-14T06:02:05.600Z,1228.8
2017-05-14T06:03:06.834Z,1228.8
2017-05-14T06:04:08.070Z,1254.4
2017-05-14T06:05:09.296Z,1254.4
2017-05-14T06:06:10.538Z,1254.4
2017-05-14T06:07:11.768Z,1280
2017-05-14T06:08:13.013Z,1280
2017-05-14T06:09:14.232Z,1280
2017-05-14T06:10:15.462Z,1280
2017-05-14T06:11:16.714Z,1280
2017-05-14T06:12:17.954Z,1280
2017-05-14T06:13:19.175Z,1280
2017-05-14T06:14:20.421Z,1280
2017-05-14T06:15:21.661Z,1280
2017-05-14T06:16:22.898Z,1280
2017-05-14T06:17:24.459Z,1305.6
2017-05-14T06:18:25.700Z,1305.6
2017-05-14T06:19:26.920Z,1305.6
2017-05-14T06:20:28.166Z,1305.6
2017-05-14T06:21:29.382Z,1305.6
2017-05-14T06:22:30.635Z,1305.6
2017-05-14T06:23:31.882Z,1305.6
2017-05-14T06:24:33.097Z,1305.6
2017-05-14T06:25:34.339Z,1305.6
2017-05-14T06:26:35.562Z,1305.6
2017-05-14T06:27:36.809Z,1305.6
2017-05-14T06:28:38.043Z,1305.6
2017-05-14T06:29:39.625Z,1305.6
2017-05-14T06:30:40.847Z,1305.6
2017-05-14T06:31:42.093Z,1305.6
2017-05-14T06:32:43.334Z,1305.6
2017-05-14T06:33:44.568Z,1305.6
2017-05-14T06:34:45.789Z,1305.6
2017-05-14T06:35:47.013Z,1305.6
2017-05-14T06:36:48.260Z,1305.6
2017-05-14T06:37:49.510Z,1305.6
2017-05-14T06:38:50.744Z,1305.6
2017-05-14T06:39:51.987Z,1305.6
2017-05-14T06:40:53.230Z,1305.6
2017-05-14T06:41:54.464Z,1305.6
2017-05-14T06:42:55.697Z,1305.6
2017-05-14T06:43:56.937Z,1305.6
2017-05-14T06:44:58.158Z,1305.6
2017-05-14T06:45:59.390Z,1305.6
2017-05-14T06:47:00.618Z,1305.6
2017-05-14T06:48:01.856Z,1305.6
2017-05-14T06:49:03.101Z,1305.6
2017-05-14T06:50:04.328Z,1305.6
2017-05-14T06:51:05.556Z,1305.6
2017-05-14T06:52:06.818Z,1305.6
2017-05-14T06:53:08.038Z,1305.6
2017-05-14T06:54:09.625Z,1305.6
2017-05-14T06:55:10.845Z,1305.6
2017-05-14T06:56:12.078Z,1305.6
2017-05-14T06:57:13.307Z,1305.6
2017-05-14T06:58:14.542Z,1305.6
2017-05-14T06:59:15.783Z,1305.6
2017-05-14T07:00:17.013Z,1305.6
2017-05-14T07:01:18.247Z,1305.6
2017-05-14T07:02:19.865Z,1305.6
2017-05-14T07:03:21.108Z,1305.6
2017-05-14T07:04:22.345Z,1305.6
2017-05-14T07:05:23.574Z,1305.6
2017-05-14T07:06:24.812Z,1305.6
2017-05-14T07:07:26.045Z,1305.6
2017-05-14T07:08:27.313Z,1305.6
2017-05-14T07:09:28.876Z,1305.6
2017-05-14T07:10:30.121Z,1280
2017-05-14T07:11:31.359Z,1280
2017-05-14T07:12:32.592Z,1280
2017-05-14T07:13:34.165Z,1280
2017-05-14T07:14:35.397Z,1280
2017-05-14T07:15:36.632Z,1280
2017-05-14T07:16:37.854Z,1280
2017-05-14T07:17:39.099Z,1305.6
2017-05-14T07:18:40.378Z,1305.6
2017-05-14T07:19:41.618Z,1305.6
2017-05-14T07:20:42.849Z,1305.6
2017-05-14T07:21:44.074Z,1305.6
2017-05-14T07:22:45.309Z,1305.6
2017-05-14T07:23:46.539Z,1305.6
2017-05-14T07:24:47.786Z,1305.6
2017-05-14T07:25:49.018Z,1305.6
2017-05-14T07:26:50.596Z,1305.6
2017-05-14T07:27:51.832Z,1280
2017-05-14T07:28:53.063Z,1280
2017-05-14T07:29:54.306Z,1280
2017-05-14T07:30:55.566Z,1280
2017-05-14T07:31:56.812Z,1280
2017-05-14T07:32:58.032Z,1280
2017-05-14T07:33:59.283Z,1280
2017-05-14T07:35:00.857Z,1280
2017-05-14T07:36:02.101Z,1280
2017-05-14T07:37:03.334Z,1280
2017-05-14T07:38:04.564Z,1280
2017-05-14T07:39:05.814Z,1280
2017-05-14T07:40:07.045Z,1280
2017-05-14T07:41:08.283Z,1280
2017-05-14T07:42:09.508Z,1280
2017-05-14T07:43:10.763Z,1280
2017-05-14T07:44:11.986Z,1280
2017-05-14T07:45:13.220Z,1280
2017-05-14T07:46:14.438Z,1280
2017-05-14T07:47:15.681Z,1280
2017-05-14T07:48:16.927Z,1280
2017-05-14T07:49:18.158Z,1280
2017-05-14T07:50:19.391Z,1280
2017-05-14T07:51:20.624Z,1280
2017-05-14T07:52:21.858Z,1280
2017-05-14T07:53:23.099Z,1280
2017-05-14T07:54:24.348Z,1280
2017-05-14T07:55:25.564Z,1280
2017-05-14T07:56:26.792Z,1280
2017-05-14T07:57:28.094Z,1280
2017-05-14T07:58:29.328Z,1280
2017-05-14T07:59:30.565Z,1280
2017-05-14T08:00:31.789Z,1280
2017-05-14T08:01:33.027Z,1280
2017-05-14T08:02:34.269Z,1280
2017-05-14T08:03:35.502Z,1280
2017-05-14T08:04:37.072Z,1280
2017-05-14T08:05:38.299Z,1280
2017-05-14T08:06:39.519Z,1280
2017-05-14T08:07:40.749Z,1280
2017-05-14T08:08:42.003Z,1280
2017-05-14T08:09:43.230Z,1280
2017-05-14T08:10:44.455Z,1280
2017-05-14T08:11:45.698Z,1280
2017-05-14T08:12:47.273Z,1280
2017-05-14T08:13:48.523Z,1280
2017-05-14T08:14:49.760Z,1280
2017-05-14T08:15:50.992Z,1280
2017-05-14T08:16:52.229Z,1280
2017-05-14T08:17:53.453Z,1280
2017-05-14T08:18:54.696Z,1280
2017-05-14T08:19:55.949Z,1280
2017-05-14T08:20:57.177Z,1280
2017-05-14T08:21:58.403Z,1280
2017-05-14T08:22:59.650Z,1280
2017-05-14T08:24:00.893Z,1254.4
2017-05-14T08:25:02.145Z,1280
2017-05-14T08:26:03.365Z,1254.4
2017-05-14T08:26:23.986Z,1280
2017-05-14T08:26:42.751Z,1280
2017-05-14T08:27:43.986Z,1228.8
2017-05-14T08:28:45.221Z,1228.8
2017-05-14T08:29:46.466Z,1228.8
2017-05-14T08:30:47.724Z,1254.4
2017-05-14T08:31:48.974Z,1280
2017-05-14T08:32:50.559Z,1280
2017-05-14T08:33:52.155Z,1254.4
2017-05-14T08:35:12.569Z,1280
2017-05-14T08:36:13.817Z,1280
2017-05-14T08:37:15.018Z,1254.4
2017-05-14T08:38:16.221Z,1254.4
2017-05-14T08:39:17.415Z,1254.4
2017-05-14T08:40:18.620Z,1254.4
2017-05-14T08:41:19.818Z,1254.4
2017-05-14T08:42:21.019Z,1254.4
2017-05-14T08:43:22.221Z,1254.4
2017-05-14T08:44:23.422Z,1254.4
2017-05-14T08:45:24.624Z,1254.4
2017-05-14T08:46:25.825Z,1254.4
2017-05-14T08:47:27.025Z,1254.4
2017-05-14T08:48:28.894Z,1254.4
2017-05-14T08:49:30.092Z,1254.4
2017-05-14T08:50:31.288Z,1254.4
2017-05-14T08:51:32.531Z,1254.4
2017-05-14T08:52:33.734Z,1254.4
2017-05-14T08:53:34.933Z,1254.4
2017-05-14T08:54:36.137Z,1254.4
2017-05-14T08:55:37.380Z,1254.4
2017-05-14T08:56:38.583Z,1254.4
2017-05-14T08:57:39.779Z,1254.4
2017-05-14T08:58:40.977Z,1254.4
2017-05-14T08:59:42.174Z,1254.4
2017-05-14T09:00:43.374Z,1254.4
2017-05-14T09:01:44.576Z,1254.4
2017-05-14T09:02:45.781Z,1254.4
2017-05-14T09:03:46.984Z,1254.4
2017-05-14T09:04:48.178Z,1254.4
2017-05-14T09:05:49.386Z,1254.4
2017-05-14T09:06:50.598Z,1254.4
2017-05-14T09:07:51.794Z,1254.4
2017-05-14T09:08:53.000Z,1254.4
2017-05-14T09:09:54.198Z,1228.8
2017-05-14T09:10:55.402Z,1254.4
2017-05-14T09:11:56.599Z,1254.4
2017-05-14T09:12:57.809Z,1254.4
2017-05-14T09:13:59.010Z,1254.4
2017-05-14T09:15:00.210Z,1254.4
2017-05-14T09:16:01.411Z,1254.4
2017-05-14T09:17:02.616Z,1254.4
2017-05-14T09:18:03.824Z,1254.4
2017-05-14T09:19:05.026Z,1254.4
2017-05-14T09:20:06.230Z,1254.4
2017-05-14T09:21:07.424Z,1254.4
2017-05-14T09:22:08.628Z,1254.4
2017-05-14T09:23:10.161Z,1254.4
2017-05-14T09:24:11.364Z,1254.4
2017-05-14T09:25:12.909Z,1228.8
2017-05-14T09:26:14.112Z,1228.8
2017-05-14T09:27:15.307Z,1228.8
2017-05-14T09:28:16.505Z,1228.8
2017-05-14T09:29:17.707Z,1228.8
2017-05-14T09:30:18.908Z,1228.8
2017-05-14T09:31:20.115Z,1228.8
2017-05-14T09:32:21.312Z,1228.8
2017-05-14T09:33:22.512Z,1228.8
2017-05-14T09:34:23.715Z,1228.8
2017-05-14T09:35:24.917Z,1228.8
2017-05-14T09:36:26.130Z,1228.8
2017-05-14T09:37:27.337Z,1228.8
2017-05-14T09:38:28.568Z,1228.8
2017-05-14T09:39:29.777Z,1228.8
2017-05-14T09:40:30.985Z,1228.8
2017-05-14T09:41:32.216Z,1228.8
2017-05-14T09:42:33.423Z,1228.8
2017-05-14T09:43:34.628Z,1228.8
2017-05-14T09:44:35.847Z,1228.8
2017-05-14T09:45:37.109Z,1228.8
2017-05-14T09:46:38.518Z,1228.8
2017-05-14T09:47:39.717Z,1228.8
2017-05-14T09:48:40.984Z,1228.8
2017-05-14T09:49:42.206Z,1228.8
2017-05-14T09:50:43.415Z,1228.8
2017-05-14T09:51:44.752Z,1228.8
2017-05-14T09:52:45.989Z,1228.8
2017-05-14T09:53:47.197Z,1228.8
2017-05-14T09:54:48.395Z,1228.8
2017-05-14T09:55:49.614Z,1228.8
2017-05-14T09:56:51.176Z,1228.8
2017-05-14T09:57:52.451Z,1228.8
2017-05-14T09:58:53.655Z,1228.8
2017-05-14T09:59:54.858Z,1254.4
2017-05-14T10:00:56.057Z,1254.4
2017-05-14T10:01:57.379Z,1254.4
2017-05-14T10:02:58.583Z,1254.4
2017-05-14T10:03:59.804Z,1254.4
2017-05-14T10:05:01.381Z,1254.4
2017-05-14T10:06:02.634Z,1254.4
2017-05-14T10:07:04.178Z,1254.4
2017-05-14T10:08:05.384Z,1254.4
2017-05-14T10:09:06.656Z,1254.4
2017-05-14T10:10:07.855Z,1254.4
2017-05-14T10:11:09.062Z,1254.4
2017-05-14T10:12:10.272Z,1254.4
2017-05-14T10:13:11.590Z,1254.4
2017-05-14T10:14:12.789Z,1254.4
2017-05-14T10:15:14.000Z,1254.4
2017-05-14T10:16:15.194Z,1254.4
2017-05-14T10:17:16.451Z,1254.4
2017-05-14T10:18:17.657Z,1254.4
2017-05-14T10:19:18.860Z,1254.4
2017-05-14T10:20:20.064Z,1254.4
2017-05-14T10:21:21.264Z,1254.4
2017-05-14T10:22:22.567Z,1254.4
2017-05-14T10:23:23.768Z,1254.4
2017-05-14T10:24:24.982Z,1254.4
2017-05-14T10:25:26.188Z,1254.4
2017-05-14T10:26:27.946Z,1254.4
2017-05-14T10:27:29.144Z,1254.4
2017-05-14T10:28:30.347Z,1254.4
2017-05-14T10:29:31.625Z,1254.4
2017-05-14T10:30:32.823Z,1254.4
2017-05-14T10:31:34.022Z,1254.4
2017-05-14T10:32:35.222Z,1254.4
2017-05-14T10:33:36.521Z,1254.4
2017-05-14T10:34:37.739Z,1254.4
2017-05-14T10:35:39.283Z,1254.4
2017-05-14T10:36:40.486Z,1254.4
2017-05-14T10:37:41.731Z,1254.4
2017-05-14T10:38:42.967Z,1254.4
2017-05-14T10:39:44.202Z,1254.4
2017-05-14T10:40:45.408Z,1254.4
2017-05-14T10:41:46.695Z,1254.4
2017-05-14T10:42:47.893Z,1254.4
2017-05-14T10:43:49.092Z,1254.4
2017-05-14T10:44:50.638Z,1254.4
2017-05-14T10:45:51.848Z,1254.4
2017-05-14T10:46:53.042Z,1254.4
2017-05-14T10:47:54.240Z,1228.8
2017-05-14T10:48:55.491Z,1228.8
2017-05-14T10:49:56.694Z,1228.8
2017-05-14T10:50:58.246Z,1228.8
2017-05-14T10:51:59.778Z,1228.8
2017-05-14T10:53:00.979Z,1228.8
2017-05-14T10:54:02.516Z,1228.8
2017-05-14T10:55:03.737Z,1228.8
2017-05-14T10:56:04.939Z,1228.8
2017-05-14T10:57:06.140Z,1228.8
2017-05-14T10:58:07.339Z,1228.8
2017-05-14T10:59:08.534Z,1228.8
2017-05-14T11:00:09.734Z,1228.8
2017-05-14T11:01:10.937Z,1228.8
2017-05-14T11:02:12.146Z,1228.8
2017-05-14T11:03:13.339Z,1228.8
2017-05-14T11:04:14.546Z,1228.8
2017-05-14T11:05:15.740Z,1228.8
2017-05-14T11:06:16.937Z,1228.8
2017-05-14T11:07:18.133Z,1228.8
2017-05-14T11:08:19.327Z,1228.8
2017-05-14T11:09:20.528Z,1228.8
2017-05-14T11:10:21.730Z,1228.8
2017-05-14T11:11:22.931Z,1228.8
2017-05-14T11:12:24.469Z,1228.8
2017-05-14T11:13:25.675Z,1228.8
2017-05-14T11:14:26.881Z,1228.8
2017-05-14T11:15:28.086Z,1228.8
2017-05-14T11:16:29.284Z,1228.8
2017-05-14T11:17:30.480Z,1228.8
2017-05-14T11:18:32.024Z,1228.8
2017-05-14T11:19:33.230Z,1228.8
2017-05-14T11:20:34.764Z,1228.8
2017-05-14T11:21:36.298Z,1228.8
2017-05-14T11:22:37.501Z,1228.8
2017-05-14T11:23:38.706Z,1228.8
2017-05-14T11:24:39.912Z,1228.8
2017-05-14T11:25:41.113Z,1228.8
2017-05-14T11:26:42.310Z,1228.8
2017-05-14T11:27:43.512Z,1228.8
2017-05-14T11:28:44.709Z,1228.8
2017-05-14T11:29:46.270Z,1228.8
2017-05-14T11:30:47.467Z,1228.8
2017-05-14T11:31:48.663Z,1228.8
2017-05-14T11:32:49.865Z,1228.8
2017-05-14T11:33:51.069Z,1228.8
2017-05-14T11:34:52.313Z,1228.8
2017-05-14T11:35:53.509Z,1228.8
2017-05-14T11:36:54.707Z,1228.8
2017-05-14T11:37:55.900Z,1228.8
2017-05-14T11:38:57.101Z,1228.8
2017-05-14T11:39:58.299Z,1228.8
2017-05-14T11:40:59.508Z,1228.8
2017-05-14T11:42:01.386Z,1203.2
2017-05-14T11:43:02.582Z,1203.2
2017-05-14T11:44:03.787Z,1203.2
2017-05-14T11:45:04.989Z,1203.2
2017-05-14T11:46:06.191Z,1203.2
2017-05-14T11:47:07.416Z,1203.2
2017-05-14T11:48:08.616Z,1203.2
2017-05-14T11:49:09.859Z,1203.2
2017-05-14T11:50:11.069Z,1203.2
2017-05-14T11:51:12.278Z,1203.2
2017-05-14T11:52:13.470Z,1203.2
2017-05-14T11:53:14.672Z,1203.2
2017-05-14T11:54:16.202Z,1203.2
2017-05-14T11:55:17.409Z,1203.2
2017-05-14T11:56:18.614Z,1203.2
2017-05-14T11:57:19.811Z,1203.2
2017-05-14T11:58:21.013Z,1203.2
2017-05-14T11:59:22.218Z,1203.2
2017-05-14T12:00:23.753Z,1203.2
2017-05-14T12:01:24.950Z,1203.2
2017-05-14T12:02:26.150Z,1203.2
2017-05-14T12:03:27.353Z,1203.2
2017-05-14T12:04:28.552Z,1203.2
2017-05-14T12:05:29.751Z,1203.2
2017-05-14T12:06:30.957Z,1203.2
2017-05-14T12:07:32.152Z,1203.2
2017-05-14T12:08:33.362Z,1203.2
2017-05-14T12:09:34.560Z,1203.2
2017-05-14T12:10:36.069Z,1203.2
2017-05-14T12:11:37.275Z,1203.2
2017-05-14T12:12:39.140Z,1203.2
2017-05-14T12:13:40.342Z,1203.2
2017-05-14T12:14:41.889Z,1203.2
2017-05-14T12:15:43.094Z,1203.2
2017-05-14T12:16:44.295Z,1203.2
2017-05-14T12:17:45.493Z,1203.2
2017-05-14T12:18:46.700Z,1203.2
2017-05-14T12:19:48.241Z,1203.2
2017-05-14T12:20:49.448Z,1203.2
2017-05-14T12:21:50.643Z,1203.2
2017-05-14T12:22:51.848Z,1203.2
2017-05-14T12:23:53.046Z,1203.2
2017-05-14T12:24:54.252Z,1203.2
2017-05-14T12:25:55.787Z,1203.2
2017-05-14T12:26:56.987Z,1203.2
2017-05-14T12:27:58.189Z,1203.2
2017-05-14T12:28:59.393Z,1203.2
2017-05-14T12:30:00.643Z,1203.2
2017-05-14T12:31:01.846Z,1203.2
2017-05-14T12:32:03.047Z,1203.2
2017-05-14T12:33:04.243Z,1203.2
2017-05-14T12:34:05.441Z,1203.2
2017-05-14T12:35:06.642Z,1203.2
2017-05-14T12:36:07.841Z,1203.2
2017-05-14T12:37:09.045Z,1203.2
2017-05-14T12:38:10.244Z,1203.2
2017-05-14T12:39:11.438Z,1203.2
2017-05-14T12:40:12.683Z,1203.2
2017-05-14T12:41:13.883Z,1203.2
2017-05-14T12:42:15.085Z,1203.2
2017-05-14T12:43:16.278Z,1203.2
2017-05-14T12:44:17.479Z,1203.2
2017-05-14T12:45:18.676Z,1203.2
2017-05-14T12:46:19.881Z,1203.2
2017-05-14T12:47:21.083Z,1203.2
2017-05-14T12:48:22.306Z,1203.2
2017-05-14T12:49:23.845Z,1203.2
2017-05-14T12:50:25.042Z,1203.2
2017-05-14T12:51:26.242Z,1203.2
2017-05-14T12:52:27.442Z,1203.2
2017-05-14T12:53:28.641Z,1203.2
2017-05-14T12:54:29.840Z,1203.2
2017-05-14T12:55:31.386Z,1203.2
2017-05-14T12:56:32.911Z,1203.2
2017-05-14T12:57:34.116Z,1203.2
2017-05-14T12:58:35.316Z,1203.2